»·PEaware :: N373EB KSAC-KWHP

N373EB :: KSAC-KWHP

FLIGHT INFORMATION

Flight Status: Arrived
Operator: Privately registered:
United States
More flights under this callsign
Pilot: Peder R. (40111)
Aircraft: BEECH AIRCRAFT DEBONAIR BONANZA
(BE33)
More flights by this aircraft type
Origin: KSAC Sacramento Executive
United States
Destination: KWHP Whiteman
United States
More flights between these airports :: More routes between these airports
Route: HNNRY T261 RBLEW T263 PXN V107 FIM
File this flight plan on PilotEdge
Remarks: Trying to add space between me and the Convective SIGMET east of my route.
Altitude:
(Current/Filed)
13,000ft
Speed:
(Current/Filed)
155kts
Departed: 12-Aug-23 12:22 PM
Arrived: 12-Aug-23 02:36 PM
Distance/Time
Traveled:
295nm/2:13
Distance/Time
To Go:
Arrived

Flight Plot

Page will automatically refresh every two minutes.

Flight plan parsing failed; only flown route is shown


Map Options




Map Legend


Flown Route
Filed Route
Departure Airport
Arrival Airport
Navaid (VOR, NDB)
Fix

Horizontal Profiles

Position Reports

Time Latitude Longitude Heading Altitude Ground
Speed
12-Aug-23 12:08 38.512660 -121.498419 213 20ft 0kts
12-Aug-23 12:09 38.512660 -121.498419 213 20ft 0kts
12-Aug-23 12:10 38.512660 -121.498419 213 20ft 0kts
12-Aug-23 12:10 38.512660 -121.498419 213 20ft 0kts
12-Aug-23 12:11 38.512660 -121.498419 213 20ft 0kts
12-Aug-23 12:13 38.512660 -121.498419 213 20ft 0kts
12-Aug-23 12:14 38.512195 -121.497725 125 20ft 8kts
12-Aug-23 12:15 38.512309 -121.496505 32 20ft 8kts
12-Aug-23 12:15 38.513886 -121.495182 33 20ft 7kts
12-Aug-23 12:16 38.517160 -121.492482 33 21ft 13kts
12-Aug-23 12:18 38.519402 -121.490601 121 23ft 0kts
12-Aug-23 12:18 38.519402 -121.490601 121 23ft 0kts
12-Aug-23 12:19 38.519402 -121.490601 121 23ft 0kts
12-Aug-23 12:20 38.519027 -121.489565 123 23ft 9kts
12-Aug-23 12:21 38.504893 -121.500797 209 376ft 97kts
12-Aug-23 12:22 38.478550 -121.498695 166 1464ft 101kts
12-Aug-23 12:23 38.449603 -121.495420 181 2206ft 111kts
12-Aug-23 12:24 38.417305 -121.496202 176 2976ft 115kts
12-Aug-23 12:25 38.384288 -121.496474 179 3719ft 117kts
12-Aug-23 12:26 38.350946 -121.497345 181 4528ft 119kts
12-Aug-23 12:27 38.316997 -121.498703 179 5301ft 122kts
12-Aug-23 12:28 38.282367 -121.499175 180 6033ft 124kts
12-Aug-23 12:29 38.247216 -121.499732 178 6718ft 126kts
12-Aug-23 12:30 38.211493 -121.500981 178 7343ft 128kts
12-Aug-23 12:31 38.175361 -121.501938 179 7920ft 129kts
12-Aug-23 12:32 38.138640 -121.503528 177 8455ft 131kts
12-Aug-23 12:33 38.101620 -121.504400 178 8949ft 132kts
12-Aug-23 12:34 38.064298 -121.504867 177 9414ft 133kts
12-Aug-23 12:35 38.026867 -121.504944 178 9873ft 133kts
12-Aug-23 12:36 37.989653 -121.506852 178 10332ft 131kts
12-Aug-23 12:37 37.953138 -121.507414 175 10781ft 129kts
12-Aug-23 12:38 37.919586 -121.507569 177 11163ft 129kts
12-Aug-23 12:39 37.883456 -121.504652 164 11553ft 127kts
12-Aug-23 12:40 37.848259 -121.495823 164 11968ft 123kts
12-Aug-23 12:41 37.813512 -121.487959 164 12305ft 126kts
12-Aug-23 12:42 37.778885 -121.478944 165 12639ft 127kts
12-Aug-23 12:43 37.743791 -121.470768 166 12933ft 130kts
12-Aug-23 12:44 37.706040 -121.462186 165 13038ft 143kts
12-Aug-23 12:45 37.664694 -121.451589 161 13055ft 153kts
12-Aug-23 12:46 37.626033 -121.426306 146 13048ft 157kts
12-Aug-23 12:47 37.587482 -121.397294 149 12957ft 159kts
12-Aug-23 12:48 37.549878 -121.369704 146 13006ft 152kts
12-Aug-23 12:49 37.512766 -121.342871 147 13021ft 151kts
12-Aug-23 12:50 37.476340 -121.315962 145 13026ft 151kts
12-Aug-23 12:51 37.439549 -121.289120 146 13045ft 150kts
12-Aug-23 12:52 37.402868 -121.262017 145 13049ft 150kts
12-Aug-23 12:53 37.365622 -121.236598 146 13051ft 151kts
12-Aug-23 12:54 37.328871 -121.209634 146 13056ft 151kts
12-Aug-23 12:55 37.291596 -121.183331 149 13025ft 153kts
12-Aug-23 12:56 37.253716 -121.157148 146 13008ft 153kts
12-Aug-23 12:57 37.216301 -121.130435 144 13013ft 152kts
12-Aug-23 12:58 37.179235 -121.102548 145 13023ft 153kts
12-Aug-23 12:59 37.142181 -121.075146 146 13056ft 152kts
12-Aug-23 13:00 37.105731 -121.047066 149 13097ft 152kts
12-Aug-23 13:01 37.068802 -121.022250 149 13042ft 157kts
12-Aug-23 13:02 37.030572 -120.996107 147 13083ft 153kts
12-Aug-23 13:03 36.992343 -120.970507 150 13056ft 153kts
12-Aug-23 13:04 36.954177 -120.945890 151 13018ft 152kts
12-Aug-23 13:05 36.916500 -120.921043 150 12991ft 150kts
12-Aug-23 13:06 36.879226 -120.896329 149 12971ft 149kts
12-Aug-23 13:07 36.842134 -120.871307 148 12973ft 148kts
12-Aug-23 13:08 36.805366 -120.846531 150 12962ft 148kts
12-Aug-23 13:09 36.768921 -120.821357 147 12950ft 148kts
12-Aug-23 13:10 36.732131 -120.796461 149 12942ft 148kts
12-Aug-23 13:11 36.696302 -120.769800 148 12928ft 148kts
12-Aug-23 13:12 36.660609 -120.743503 144 12931ft 147kts
12-Aug-23 13:13 36.626022 -120.715087 142 12929ft 147kts
12-Aug-23 13:14 36.591903 -120.686237 145 12964ft 145kts
12-Aug-23 13:15 36.556854 -120.659747 146 12957ft 146kts
12-Aug-23 13:16 36.521219 -120.634049 147 12965ft 146kts
12-Aug-23 13:17 36.486757 -120.606229 142 12972ft 145kts
12-Aug-23 13:18 36.452069 -120.578835 146 12973ft 146kts
12-Aug-23 13:19 36.416575 -120.553303 147 12979ft 146kts
12-Aug-23 13:20 36.381713 -120.526308 147 12984ft 146kts
12-Aug-23 13:21 36.345589 -120.501363 146 12986ft 146kts
12-Aug-23 13:22 36.310783 -120.474397 145 12992ft 145kts
12-Aug-23 13:23 36.275825 -120.447684 148 12995ft 146kts
12-Aug-23 13:24 36.240418 -120.421833 147 13000ft 146kts
12-Aug-23 13:25 36.204915 -120.396052 146 13004ft 145kts
12-Aug-23 13:26 36.170132 -120.369557 145 13007ft 145kts
12-Aug-23 13:27 36.135484 -120.342080 147 13013ft 145kts
12-Aug-23 13:28 36.100536 -120.315584 146 13028ft 145kts
12-Aug-23 13:29 36.065172 -120.289515 149 13043ft 145kts
12-Aug-23 13:30 36.029904 -120.263256 148 13039ft 146kts
12-Aug-23 13:31 35.994560 -120.236670 145 13035ft 147kts
12-Aug-23 13:32 35.959107 -120.210259 147 13023ft 148kts
12-Aug-23 13:33 35.924037 -120.182521 145 13021ft 147kts
12-Aug-23 13:34 35.888024 -120.156075 147 13008ft 148kts
12-Aug-23 13:35 35.852096 -120.130157 147 13007ft 148kts
12-Aug-23 13:36 35.815969 -120.104196 145 13007ft 147kts
12-Aug-23 13:37 35.780517 -120.077247 149 13004ft 148kts
12-Aug-23 13:38 35.744442 -120.051595 147 13005ft 148kts
12-Aug-23 13:39 35.708160 -120.026665 148 13002ft 148kts
12-Aug-23 13:40 35.673093 -119.999347 144 13003ft 147kts
12-Aug-23 13:41 35.638872 -119.970442 145 13005ft 147kts
12-Aug-23 13:42 35.604384 -119.942298 142 13008ft 147kts
12-Aug-23 13:43 35.570143 -119.913382 145 13014ft 147kts
12-Aug-23 13:44 35.535940 -119.884427 142 13019ft 147kts
12-Aug-23 13:45 35.502125 -119.855181 144 13031ft 147kts
12-Aug-23 13:46 35.468610 -119.825946 141 13046ft 146kts
12-Aug-23 13:47 35.435186 -119.796243 140 13061ft 146kts
12-Aug-23 13:48 35.402975 -119.764691 148 13082ft 145kts
12-Aug-23 13:49 35.367607 -119.737236 143 13014ft 149kts
12-Aug-23 13:50 35.333085 -119.708069 143 12990ft 149kts
12-Aug-23 13:51 35.297794 -119.679638 142 12976ft 149kts
12-Aug-23 13:52 35.263956 -119.649521 141 13013ft 145kts
12-Aug-23 13:53 35.230446 -119.620028 143 12994ft 147kts
12-Aug-23 13:54 35.196436 -119.591157 142 13016ft 146kts
12-Aug-23 13:55 35.162580 -119.562161 141 13022ft 146kts
12-Aug-23 13:56 35.129183 -119.532580 145 13026ft 147kts
12-Aug-23 13:57 35.095122 -119.504215 143 13035ft 146kts
12-Aug-23 13:58 35.061197 -119.475473 143 13038ft 146kts
12-Aug-23 13:59 35.027496 -119.446320 141 13053ft 146kts
12-Aug-23 14:00 34.993366 -119.418321 142 13061ft 145kts
12-Aug-23 14:01 34.958497 -119.391170 141 13050ft 146kts
12-Aug-23 14:02 34.925048 -119.362104 140 13040ft 146kts
12-Aug-23 14:03 34.891065 -119.333687 138 13025ft 147kts
12-Aug-23 14:04 34.857603 -119.303721 137 13017ft 147kts
12-Aug-23 14:05 34.823230 -119.275228 138 13017ft 147kts
12-Aug-23 14:06 34.789835 -119.246047 138 13040ft 146kts
12-Aug-23 14:07 34.756100 -119.217169 140 13062ft 146kts
12-Aug-23 14:08 34.722334 -119.188437 136 13044ft 145kts
12-Aug-23 14:09 34.688217 -119.159480 140 12529ft 148kts
12-Aug-23 14:10 34.653648 -119.130522 137 11924ft 148kts
12-Aug-23 14:11 34.619553 -119.101730 139 11413ft 142kts
12-Aug-23 14:12 34.586122 -119.073367 140 10800ft 143kts
12-Aug-23 14:13 34.553345 -119.045902 140 10257ft 139kts
12-Aug-23 14:14 34.521383 -119.018558 141 9686ft 138kts
12-Aug-23 14:15 34.488767 -118.993961 140 9078ft 136kts
12-Aug-23 14:16 34.457835 -118.967938 144 8494ft 133kts
12-Aug-23 14:17 34.427563 -118.941972 143 7888ft 131kts
12-Aug-23 14:18 34.397998 -118.915615 143 7335ft 126kts
12-Aug-23 14:19 34.369716 -118.892817 143 6999ft 119kts
12-Aug-23 14:20 34.361624 -118.854488 86 6464ft 130kts
12-Aug-23 14:21 34.365018 -118.810316 90 5931ft 130kts
12-Aug-23 14:22 34.369322 -118.765835 89 5430ft 130kts
12-Aug-23 14:23 34.373787 -118.722702 90 5100ft 114kts
12-Aug-23 14:24 34.377543 -118.685974 88 4966ft 104kts
12-Aug-23 14:25 34.381579 -118.650764 90 4969ft 102kts
12-Aug-23 14:26 34.375300 -118.618735 127 4737ft 98kts
12-Aug-23 14:27 34.359270 -118.591701 126 4711ft 96kts
12-Aug-23 14:28 34.344054 -118.564212 124 4687ft 96kts
12-Aug-23 14:29 34.328839 -118.536195 123 4111ft 98kts
12-Aug-23 14:30 34.313926 -118.508395 123 3568ft 98kts
12-Aug-23 14:31 34.306408 -118.476843 93 2908ft 102kts
12-Aug-23 14:32 34.294614 -118.450506 141 2255ft 75kts
12-Aug-23 14:33 34.278703 -118.433906 140 1600ft 75kts
12-Aug-23 14:34 34.264227 -118.418648 139 1077ft 64kts
12-Aug-23 14:35 34.259478 -118.413000 46 992ft 0kts
12-Aug-23 14:36 34.259478 -118.413000 46 992ft 0kts
12-Aug-23 14:37 34.259957 -118.412682 319 994ft 1kts

Navigation Log

Ident Type
Flight plan parsing failed, navigation log unavailable